Stonington, CT

1:05 PM EDT on September 19, 2014 (GMT -0400)
Masons Island Marina | Change Station
CLOSE
Current Station
Personal Weather Station
Location: Stonington, CT
Elevation: 30 ft
Nearby Weather Stations

Elev 30 ft 41.34 °N, 71.96 °W | Updated 2 seconds ago

Clear
Clear
59.7 °F
Feels Like 59.7 °F
N
4.0
Wind Variable Wind from NE
Gusts 11.0 mph

Today
High -- | Low -- °F
--% Chance of Precip.
Yesterday
High -- | Low -- °F
Precip. -- in
6:32 AM 6:50 PM
Waning Crescent, 18% visible
Pressure 30.37 in
Visibility 10.0 miles
Clouds Clear
Dew Point 38 °F
Humidity 44%
Rainfall 0.00 in
Snow Depth Not available.
UV 8 out of 12
Pollen 3.60 out of 12
Ozone Good
PM2.5 Good
Flu Activity Not available.
METAR KWST 191653Z AUTO 01007KT 10SM CLR 16/02 A3037 RMK AO2 SLP282 T01610017

More Conditions Fewer Conditions

Pressure 30.37 in
Visibility 10.0 miles
Clouds Clear
Dew Point 38 °F
Humidity 44%
Rainfall 0.00 in
Snow Depth Not available.
UV 8 out of 12
Pollen 3.60 out of 12
Ozone Good
PM2.5 Good
Flu Activity Not available.
METAR KWST 191653Z AUTO 01007KT 10SM CLR 16/02 A3037 RMK AO2 SLP282 T01610017

More Conditions Fewer Conditions

10-Day Weather Forecast

Almanac

Astronomy

Sep. 19, 2014 Rise Set
Actual Time 6:32 AM EDT 6:50 PM EDT
Civil Twilight 6:04 AM EDT 7:17 PM EDT
Nautical Twilight 5:31 AM EDT 7:50 PM EDT
Astronomical Twilight 4:58 AM EDT 8:23 PM EDT
Moon 2:12 AM EDT 4:19 PM EDT
Length of Visible Light 13h 13m
Length of Day
12h 18m
Tomorrow will be 2m 45s shorter.
Waning Crescent, 18% of the Moon is Illuminated
Today
Waning Crescent
Sep 24
New
Oct 1
First Quarter
Oct 8
Full
Oct 15
Last Quarter

Today's Extremes

State Highs State Lows

Community

WunderPhotos

Upload Photos

1,754,655 photos uploaded!

Nearby

Air Quality

  Air Quality AQ Index Pollutant
Yesterday Good
OZONE
Yesterday Good
PM2.5
Current Good
PM2.5
Current Good
OZONE
Friday Good
OZONE
Friday Good
PM2.5

Snow Depth

Station Depth Elevation
No new snow has been reported.

Earthquake Activity

City Distance Mag. Time & Date
No recent earthquake activity has been reported nearby.
Minimum magnitude displayed is 2.5.

Coastal Water Temperatures

Place Temperature
New London, CT 66.9 °F
Newport, RI 66.0 °F
Quonset Point, RI 68.0 °F
Conimicut Light, RI 68.0 °F
Providence, RI 66.9 °F

Nearby Weather Stations